Pagrindinis puslapis
METAR-TAF:

METAR-TAF

Oro uostai :

Beirutas, Libanas

platuma: 33-49N, ilguma: 035-29E, Aukštis: 29 m

Dabartinis oras

Ataskaita buvo paskelbta 54 minutes, ne 17:00 UTC
Vėjas 9 kt iš Pietvakarių
Temperatūra 27°C
Drėgmė 62%
Slėgis 1011 hPa
Matomumas: 8000 m
Išsisklaidę debesys ne aukštis 3400 ft

METAR: OLBA 151700Z 23009KT 8000 SCT034 27/19 Q1011 NOSIG

Laikas: 20:54 (17:54 UTC)

Prognozė

Ataskaita buvo paskelbta 1 valandą ir 54 minutes, ne 16:00 UTC
Prognozė galioja nuo 15 metu 18 UTC su 16 metu 24 UTC
Vėjas 12 kt iš Pietvakarių
Matomumas: 8000 m
Išsisklaidę debesys ne aukštis 2700 ft
Laikinai
nuo 15 metu 21 UTC su 16 metu 09 UTC
Matomumas: 7000 m
Su prošvaistėmis ne aukštis 2600 ft
lietus
Tapsmas
nuo 16 metu 09 UTC su 16 metu 12 UTC
Vėjas 15 kt iš Vakarų/Pietvakarių
Tapsmas
nuo 16 metu 18 UTC su 16 metu 21 UTC
Vėjas 10 kt iš Pietų
Laikinai
nuo 16 metu 18 UTC su 16 metu 24 UTC
dulksna

TAF: OLBA 151600Z 1518/1624 22012KT 8000 SCT027 TEMPO 1521/1609 7000 RA BKN026 BECMG 1609/1612 25015KT BECMG 1618/1621 18010KT TEMPO 1618/1624 DZ

Orai ataskaitas ir orų prognozės (METAR, TAF).

turimą stotys yra geltonos ir raudonos taškus žemėlapyje.

Perkelti pele per norėdami pamatyti stoties vardą.

Tada spustelėkite, norėdami matyti oro stebėjimo ir prognozės.

Norėdami pakeisti žemėlapį: spustelėkite ant žalios mygtukų su juodo kryžiaus žemyn,; žalią mygtuką su brūkšneliu, jei norite nutolinti; arba žalių rodyklių gretimoms žemėlapius.


METAR-TAF: